createdAt,value
2019-04-30T00:01:40.338Z,24.73
2019-04-30T00:04:12.107Z,22.33
2019-04-30T00:06:39.691Z,25.60
2019-04-30T00:09:09.647Z,24.60
2019-04-30T00:11:37.183Z,27.77
2019-04-30T00:14:05.627Z,26.47
2019-04-30T00:16:36.248Z,25.67
2019-04-30T00:19:02.187Z,26.73
2019-04-30T00:21:29.435Z,26.77
2019-04-30T00:24:00.742Z,32.50
2019-04-30T00:26:26.911Z,32.87
2019-04-30T00:28:55.368Z,35.90
2019-04-30T00:31:27.443Z,30.90
2019-04-30T00:33:57.915Z,31.23
2019-04-30T00:36:27.531Z,31.03
2019-04-30T00:38:54.803Z,29.00
2019-04-30T00:41:22.630Z,28.23
2019-04-30T00:43:50.891Z,31.47
2019-04-30T00:46:25.626Z,31.53
2019-04-30T00:48:47.535Z,32.50
2019-04-30T00:51:21.006Z,29.27
2019-04-30T00:53:51.063Z,31.50
2019-04-30T00:56:13.121Z,28.77
2019-04-30T00:58:40.436Z,27.73
2019-04-30T01:01:18.652Z,29.93
2019-04-30T01:03:50.607Z,37.13
2019-04-30T01:06:26.842Z,33.83
2019-04-30T01:08:47.171Z,30.87
2019-04-30T01:11:15.414Z,37.93
2019-04-30T01:13:50.211Z,28.33
2019-04-30T01:16:12.291Z,29.67
2019-04-30T01:18:39.511Z,30.17
2019-04-30T01:21:07.840Z,26.97
2019-04-30T01:23:35.885Z,28.63
2019-04-30T01:26:03.123Z,32.10
2019-04-30T01:28:32.606Z,29.90
2019-04-30T01:31:01.916Z,28.70
2019-04-30T01:33:34.509Z,25.27
2019-04-30T01:35:59.699Z,32.20
2019-04-30T01:38:28.686Z,30.33
2019-04-30T01:40:56.185Z,29.37
2019-04-30T01:43:31.573Z,30.83
2019-04-30T01:45:52.595Z,32.20
2019-04-30T01:48:19.856Z,30.13
2019-04-30T01:50:48.701Z,32.97
2019-04-30T01:53:16.115Z,25.97
2019-04-30T01:56:15.211Z,32.03
2019-04-30T01:58:49.579Z,29.27
2019-04-30T02:01:19.533Z,34.37
2019-04-30T02:03:48.592Z,29.77
2019-04-30T02:06:15.905Z,29.27
2019-04-30T02:08:43.141Z,28.33
2019-04-30T02:11:10.387Z,36.40
2019-04-30T02:13:39.125Z,28.60
2019-04-30T02:16:08.528Z,30.30
2019-04-30T02:18:35.791Z,29.20
2019-04-30T02:21:03.063Z,31.90
2019-04-30T02:23:30.275Z,30.83
2019-04-30T02:25:58.921Z,29.13
2019-04-30T02:28:28.843Z,31.07
2019-04-30T02:30:56.033Z,29.53
2019-04-30T02:33:23.569Z,29.83
2019-04-30T02:36:10.586Z,38.17
2019-04-30T02:38:41.109Z,29.67
2019-04-30T02:41:09.790Z,29.87
2019-04-30T02:43:39.906Z,32.33
2019-04-30T02:46:09.666Z,31.73
2019-04-30T02:48:39.975Z,29.03
2019-04-30T02:51:10.296Z,28.63
2019-04-30T02:54:24.056Z,26.73
2019-04-30T02:57:07.088Z,29.03
2019-04-30T02:59:36.127Z,27.93
2019-04-30T03:02:03.394Z,32.73
2019-04-30T03:04:30.721Z,30.87
2019-04-30T03:06:59.777Z,27.57
2019-04-30T03:09:29.528Z,28.37
2019-04-30T03:11:56.335Z,29.83
2019-04-30T03:14:23.568Z,30.67
2019-04-30T03:17:11.451Z,32.13
2019-04-30T03:19:44.361Z,27.80
2019-04-30T03:22:14.775Z,32.93
2019-04-30T03:24:42.791Z,29.07
2019-04-30T03:27:10.528Z,27.23
2019-04-30T03:29:40.185Z,29.17
2019-04-30T03:32:06.913Z,26.57
2019-04-30T03:34:36.033Z,28.43
2019-04-30T03:37:03.280Z,27.73
2019-04-30T03:39:33.620Z,29.50
2019-04-30T03:41:59.811Z,29.60
2019-04-30T03:44:31.566Z,30.67
2019-04-30T03:46:56.315Z,26.33
2019-04-30T03:49:25.454Z,26.07
2019-04-30T03:51:52.679Z,28.83
2019-04-30T03:54:19.922Z,29.90
2019-04-30T03:56:49.919Z,31.53
2019-04-30T03:59:16.390Z,32.27
2019-04-30T04:02:01.484Z,28.53
2019-04-30T04:04:42.737Z,30.50
2019-04-30T04:07:23.379Z,28.40
2019-04-30T04:09:59.826Z,24.70
2019-04-30T04:12:26.633Z,27.20
2019-04-30T04:14:53.848Z,27.67
2019-04-30T04:17:21.757Z,30.97
2019-04-30T04:19:50.118Z,29.00
2019-04-30T04:22:20.686Z,30.00
2019-04-30T04:24:50.080Z,25.93
2019-04-30T04:27:19.169Z,29.80
2019-04-30T04:29:46.211Z,27.80
2019-04-30T04:32:13.497Z,25.40
2019-04-30T04:34:40.746Z,26.07
2019-04-30T04:37:10.056Z,27.37
2019-04-30T04:39:38.947Z,30.13
2019-04-30T04:42:06.303Z,30.93
2019-04-30T04:44:33.542Z,29.03
2019-04-30T04:47:00.769Z,30.80
2019-04-30T04:49:30.486Z,26.27
2019-04-30T04:51:59.203Z,27.93
2019-04-30T04:54:26.604Z,26.13
2019-04-30T04:57:10.961Z,26.03
2019-04-30T04:59:23.344Z,31.17
2019-04-30T05:01:50.702Z,27.43
2019-04-30T05:04:19.947Z,31.27
2019-04-30T05:06:49.595Z,28.33
2019-04-30T05:09:16.319Z,28.97
2019-04-30T05:11:43.579Z,30.77
2019-04-30T05:14:11.108Z,23.93
2019-04-30T05:16:38.974Z,24.47
2019-04-30T05:19:06.307Z,26.23
2019-04-30T05:21:42.130Z,27.37
2019-04-30T05:24:02.675Z,26.63
2019-04-30T05:26:32.870Z,26.53
2019-04-30T05:29:00.129Z,27.10
2019-04-30T05:31:28.945Z,25.20
2019-04-30T05:33:56.371Z,30.37
2019-04-30T05:36:23.651Z,30.13
2019-04-30T05:38:50.872Z,32.13
2019-04-30T05:41:19.261Z,30.63
2019-04-30T05:43:48.774Z,27.50
2019-04-30T05:46:15.956Z,30.27
2019-04-30T05:48:43.191Z,25.00
2019-04-30T05:51:10.411Z,27.53
2019-04-30T05:53:39.223Z,25.60
2019-04-30T05:56:06.758Z,26.40
2019-04-30T05:58:33.991Z,32.73
2019-04-30T06:01:01.213Z,31.20
2019-04-30T06:03:32.951Z,25.97
2019-04-30T06:05:58.946Z,29.87
2019-04-30T06:08:29.703Z,32.47
2019-04-30T06:11:04.630Z,26.50
2019-04-30T06:13:49.697Z,23.90
2019-04-30T06:16:19.435Z,24.70
2019-04-30T06:18:48.207Z,22.60
2019-04-30T06:21:15.843Z,22.93
2019-04-30T06:23:43.119Z,23.50
2019-04-30T06:26:13.066Z,30.47
2019-04-30T06:28:41.591Z,25.60
2019-04-30T06:31:09.161Z,23.73
2019-04-30T06:33:36.491Z,22.77
2019-04-30T06:36:03.829Z,23.20
2019-04-30T06:38:31.046Z,24.63
2019-04-30T06:40:58.886Z,22.27
2019-04-30T06:43:26.247Z,21.73
2019-04-30T06:45:53.611Z,21.77
2019-04-30T06:48:21.683Z,24.67
2019-04-30T06:50:49.349Z,26.90
2019-04-30T06:53:16.655Z,24.57
2019-04-30T06:55:43.891Z,23.70
2019-04-30T06:58:15.094Z,24.77
2019-04-30T07:00:40.548Z,23.67
2019-04-30T07:03:09.590Z,25.00
2019-04-30T07:05:38.890Z,22.77
2019-04-30T07:08:36.116Z,24.50
2019-04-30T07:11:11.875Z,25.07
2019-04-30T07:13:41.446Z,33.63
2019-04-30T07:16:11.025Z,20.93
2019-04-30T07:18:38.759Z,20.57
2019-04-30T07:21:06.189Z,23.47
2019-04-30T07:23:33.527Z,21.33
2019-04-30T07:26:00.807Z,25.87
2019-04-30T07:28:43.137Z,21.77
2019-04-30T07:31:10.168Z,19.43
2019-04-30T07:33:26.324Z,20.50
2019-04-30T07:35:53.676Z,20.37
2019-04-30T07:38:20.934Z,19.73
2019-04-30T07:40:49.339Z,19.77
2019-04-30T07:43:18.868Z,19.53
2019-04-30T07:45:45.955Z,19.70
2019-04-30T07:48:13.200Z,17.73
2019-04-30T07:50:41.409Z,19.00
2019-04-30T07:53:11.275Z,25.00
2019-04-30T07:55:39.272Z,20.37
2019-04-30T07:58:08.940Z,23.00
2019-04-30T08:00:35.937Z,17.37
2019-04-30T08:03:11.254Z,21.00
2019-04-30T08:05:41.812Z,17.73
2019-04-30T08:08:21.028Z,18.17
2019-04-30T08:10:39.432Z,11.60
2019-04-30T08:13:13.706Z,15.70
2019-04-30T08:15:35.936Z,15.90
2019-04-30T08:18:05.815Z,16.47
2019-04-30T08:20:32.355Z,12.13
2019-04-30T08:23:13.002Z,10.50
2019-04-30T08:25:29.177Z,13.67
2019-04-30T08:27:56.580Z,11.53
2019-04-30T08:30:26.862Z,11.00
2019-04-30T08:32:52.991Z,11.03
2019-04-30T08:35:20.248Z,8.98
2019-04-30T08:37:49.518Z,8.23
2019-04-30T08:40:18.876Z,9.07
2019-04-30T08:42:45.843Z,13.77
2019-04-30T08:45:13.198Z,9.63
2019-04-30T08:47:40.544Z,8.50
2019-04-30T08:50:09.798Z,11.60
2019-04-30T08:52:39.288Z,11.63
2019-04-30T08:55:16.152Z,9.70
2019-04-30T08:57:35.749Z,9.85
2019-04-30T09:00:05.084Z,9.85
2019-04-30T09:02:32.327Z,9.25
2019-04-30T09:05:03.847Z,11.85
2019-04-30T09:07:31.131Z,8.75
2019-04-30T09:09:58.537Z,10.25
2019-04-30T09:12:27.530Z,9.70
2019-04-30T09:14:54.765Z,11.90
2019-04-30T09:17:21.990Z,13.60
2019-04-30T09:19:49.220Z,12.65
2019-04-30T09:22:16.463Z,8.85
2019-04-30T09:24:43.695Z,8.48
2019-04-30T09:27:10.981Z,11.25
2019-04-30T09:29:39.162Z,8.95
2019-04-30T09:32:06.643Z,7.72
2019-04-30T09:34:33.884Z,7.95
2019-04-30T09:37:01.103Z,8.08
2019-04-30T09:39:29.613Z,12.00
2019-04-30T09:41:57.022Z,8.10
2019-04-30T09:44:24.371Z,11.18
2019-04-30T09:46:51.615Z,9.03
2019-04-30T09:49:19.495Z,12.25
2019-04-30T09:51:47.416Z,9.43
2019-04-30T09:54:16.345Z,10.50
2019-04-30T09:56:44.091Z,11.40
2019-04-30T09:59:11.351Z,8.58
2019-04-30T10:01:38.599Z,8.80
2019-04-30T10:04:06.145Z,8.48
2019-04-30T10:06:39.839Z,12.73
2019-04-30T10:09:05.379Z,8.90
2019-04-30T10:11:54.942Z,9.28
2019-04-30T10:14:22.188Z,10.25
2019-04-30T10:17:11.694Z,10.98
2019-04-30T10:19:39.399Z,11.55
2019-04-30T10:22:08.819Z,9.30
2019-04-30T10:24:36.003Z,10.45
2019-04-30T10:27:03.439Z,8.80
2019-04-30T10:29:30.755Z,9.05
2019-04-30T10:31:58.763Z,10.55
2019-04-30T10:34:26.224Z,13.13
2019-04-30T10:36:53.481Z,11.57
2019-04-30T10:39:21.786Z,8.85
2019-04-30T10:41:49.490Z,9.05
2019-04-30T10:44:18.700Z,8.78
2019-04-30T10:46:45.859Z,7.87
2019-04-30T10:49:13.099Z,7.85
2019-04-30T10:51:40.331Z,10.95
2019-04-30T10:54:08.803Z,9.88
2019-04-30T10:56:36.297Z,8.18
2019-04-30T10:59:03.681Z,6.78
2019-04-30T11:01:30.912Z,9.43
2019-04-30T11:03:58.168Z,6.45
2019-04-30T11:06:25.413Z,6.53
2019-04-30T11:08:52.644Z,7.62
2019-04-30T11:11:20.012Z,8.60
2019-04-30T11:13:47.225Z,7.05
2019-04-30T11:16:15.660Z,6.45
2019-04-30T11:18:43.142Z,9.40
2019-04-30T11:21:10.725Z,6.75
2019-04-30T11:23:39.534Z,5.58
2019-04-30T11:26:07.942Z,8.20
2019-04-30T11:28:35.782Z,5.35
2019-04-30T11:31:25.819Z,4.87
2019-04-30T11:33:54.511Z,5.67
2019-04-30T11:36:21.744Z,4.55
2019-04-30T11:38:48.986Z,4.40
2019-04-30T11:41:27.770Z,4.75
2019-04-30T11:43:45.439Z,3.87
2019-04-30T11:46:50.281Z,4.10
2019-04-30T11:49:17.783Z,3.27
2019-04-30T11:51:45.383Z,3.33
2019-04-30T11:54:12.606Z,3.70
2019-04-30T11:56:39.847Z,3.47
2019-04-30T11:59:08.697Z,4.47
2019-04-30T12:01:36.135Z,5.42
2019-04-30T12:04:03.593Z,2.85
2019-04-30T12:06:30.840Z,3.87
2019-04-30T12:09:13.375Z,3.87
2019-04-30T12:11:41.964Z,5.95
2019-04-30T12:14:09.326Z,4.95
2019-04-30T12:16:36.655Z,7.42
2019-04-30T12:19:04.235Z,5.00
2019-04-30T12:21:31.460Z,4.70
2019-04-30T12:23:58.757Z,4.90
2019-04-30T12:26:25.987Z,4.40
2019-04-30T12:28:53.231Z,3.87
2019-04-30T12:31:20.454Z,4.00
2019-04-30T12:33:47.696Z,5.12
2019-04-30T12:36:14.935Z,4.53
2019-04-30T12:38:42.195Z,5.15
2019-04-30T12:41:09.423Z,6.17
2019-04-30T12:43:36.663Z,5.10
2019-04-30T12:46:05.539Z,5.92
2019-04-30T12:48:52.682Z,4.30
2019-04-30T12:51:51.164Z,3.90
2019-04-30T12:54:32.989Z,4.12
2019-04-30T12:57:11.178Z,4.25
2019-04-30T12:59:38.611Z,3.83
2019-04-30T13:02:05.967Z,7.95
2019-04-30T13:04:33.187Z,4.78
2019-04-30T13:07:02.450Z,5.15
2019-04-30T13:09:30.533Z,7.08
2019-04-30T13:12:00.459Z,3.52
2019-04-30T13:14:29.897Z,5.72
2019-04-30T13:16:56.735Z,5.53
2019-04-30T13:19:23.956Z,4.05
2019-04-30T13:21:51.212Z,4.45
2019-04-30T13:24:18.477Z,3.58
2019-04-30T13:26:45.875Z,4.50
2019-04-30T13:29:18.074Z,6.30
2019-04-30T13:31:45.311Z,4.40
2019-04-30T13:34:34.607Z,3.10
2019-04-30T13:37:01.840Z,5.42
2019-04-30T13:39:34.599Z,4.72
2019-04-30T13:42:15.847Z,3.50
2019-04-30T13:44:39.282Z,3.90
2019-04-30T13:47:06.740Z,4.72
2019-04-30T13:49:33.976Z,5.35
2019-04-30T13:52:01.214Z,3.77
2019-04-30T13:54:29.981Z,4.53
2019-04-30T13:56:59.050Z,4.25
2019-04-30T13:59:26.368Z,4.17
2019-04-30T14:01:53.632Z,4.40
2019-04-30T14:04:39.101Z,4.05
2019-04-30T14:07:16.896Z,4.33
2019-04-30T14:09:44.254Z,3.77
2019-04-30T14:12:11.498Z,4.05
2019-04-30T14:14:39.532Z,5.58
2019-04-30T14:17:09.085Z,4.72
2019-04-30T14:19:36.116Z,4.85
2019-04-30T14:22:03.770Z,5.65
2019-04-30T14:24:31.011Z,3.80
2019-04-30T14:26:59.050Z,5.10
2019-04-30T14:29:28.448Z,6.12
2019-04-30T14:31:55.656Z,6.80
2019-04-30T14:34:22.893Z,6.53
2019-04-30T14:36:52.720Z,4.15
2019-04-30T14:39:20.420Z,7.33
2019-04-30T14:41:50.814Z,6.62
2019-04-30T14:44:21.679Z,4.30
2019-04-30T14:47:20.318Z,3.75
2019-04-30T14:50:09.973Z,7.37
2019-04-30T14:52:45.199Z,8.25
2019-04-30T14:55:31.996Z,4.60
2019-04-30T14:58:20.418Z,8.70
2019-04-30T15:01:05.326Z,6.42
2019-04-30T15:03:33.405Z,7.08
2019-04-30T15:06:00.650Z,10.65
2019-04-30T15:08:29.293Z,8.05
2019-04-30T15:10:57.139Z,6.70
2019-04-30T15:13:24.491Z,9.65
2019-04-30T15:15:51.775Z,8.68
2019-04-30T15:18:19.268Z,9.18
2019-04-30T15:20:46.640Z,7.42
2019-04-30T15:23:32.038Z,10.25
2019-04-30T15:25:59.298Z,6.85
2019-04-30T15:28:32.448Z,7.12
2019-04-30T15:30:55.688Z,6.72
2019-04-30T15:34:02.807Z,6.67
2019-04-30T15:36:29.668Z,7.92
2019-04-30T15:39:10.749Z,6.75
2019-04-30T15:41:37.985Z,6.08
2019-04-30T15:44:05.480Z,6.42
2019-04-30T15:46:32.738Z,5.72
2019-04-30T15:48:59.983Z,5.80
2019-04-30T15:51:27.260Z,6.60
2019-04-30T15:53:54.511Z,6.58
2019-04-30T15:56:34.123Z,10.08
2019-04-30T15:59:09.183Z,6.70
2019-04-30T16:01:37.124Z,6.17
2019-04-30T16:04:04.657Z,6.37
2019-04-30T16:06:31.923Z,6.40
2019-04-30T16:09:01.027Z,9.40
2019-04-30T16:11:44.460Z,7.15
2019-04-30T16:14:31.232Z,11.73
2019-04-30T16:17:20.410Z,6.15
2019-04-30T16:19:47.439Z,9.40
2019-04-30T16:22:14.843Z,7.00
2019-04-30T16:24:42.114Z,12.15
2019-04-30T16:27:09.380Z,5.90
2019-04-30T16:29:38.743Z,7.87
2019-04-30T16:32:05.956Z,12.05
2019-04-30T16:34:33.248Z,6.05
2019-04-30T16:37:00.518Z,7.37
2019-04-30T16:39:28.801Z,7.40
2019-04-30T16:41:56.235Z,6.28
2019-04-30T16:44:23.491Z,8.43
2019-04-30T16:46:50.762Z,6.40
2019-04-30T16:49:17.997Z,8.80
2019-04-30T16:51:45.359Z,6.42
2019-04-30T16:54:12.615Z,7.00
2019-04-30T16:56:39.851Z,9.93
2019-04-30T16:59:09.248Z,8.08
2019-04-30T17:01:36.584Z,8.15
2019-04-30T17:04:32.955Z,7.25
2019-04-30T17:07:18.794Z,7.65
2019-04-30T17:10:05.658Z,8.68
2019-04-30T17:12:59.390Z,7.83
2019-04-30T17:15:29.238Z,8.40
2019-04-30T17:17:58.300Z,8.23
2019-04-30T17:20:25.828Z,7.15
2019-04-30T17:22:53.087Z,7.03
2019-04-30T17:25:20.422Z,6.45
2019-04-30T17:27:47.656Z,8.58
2019-04-30T17:30:15.168Z,11.05
2019-04-30T17:32:42.543Z,11.12
2019-04-30T17:35:09.967Z,6.87
2019-04-30T17:37:37.174Z,7.22
2019-04-30T17:40:10.480Z,6.60
2019-04-30T17:42:37.770Z,7.37
2019-04-30T17:45:06.918Z,7.45
2019-04-30T17:47:34.277Z,10.23
2019-04-30T17:50:01.536Z,9.93
2019-04-30T17:52:29.819Z,7.08
2019-04-30T17:54:59.366Z,7.20
2019-04-30T17:57:32.250Z,8.05
2019-04-30T17:59:55.610Z,11.60
2019-04-30T18:02:25.091Z,6.37
2019-04-30T18:04:52.450Z,6.78
2019-04-30T18:07:20.031Z,7.55
2019-04-30T18:09:48.806Z,12.45
2019-04-30T18:12:16.278Z,10.63
2019-04-30T18:14:43.488Z,8.70
2019-04-30T18:17:10.755Z,7.12
2019-04-30T18:19:44.565Z,7.03
2019-04-30T18:22:19.430Z,8.45
2019-04-30T18:25:11.003Z,8.28
2019-04-30T18:27:46.293Z,13.43
2019-04-30T18:30:16.755Z,7.17
2019-04-30T18:32:43.996Z,10.10
2019-04-30T18:35:11.219Z,11.95
2019-04-30T18:37:38.759Z,13.67
2019-04-30T18:40:06.481Z,6.47
2019-04-30T18:42:33.762Z,5.67
2019-04-30T18:45:00.999Z,7.17
2019-04-30T18:47:28.239Z,10.13
2019-04-30T18:49:55.519Z,8.33
2019-04-30T18:52:22.803Z,7.30
2019-04-30T18:54:50.043Z,8.43
2019-04-30T18:57:17.311Z,13.68
2019-04-30T18:59:44.563Z,7.75
2019-04-30T19:02:13.172Z,10.13
2019-04-30T19:04:40.944Z,8.85
2019-04-30T19:07:29.101Z,8.40
2019-04-30T19:10:14.586Z,7.15
2019-04-30T19:12:52.911Z,6.78
2019-04-30T19:16:14.638Z,8.00
2019-04-30T19:18:35.246Z,12.25
2019-04-30T19:21:02.831Z,9.00
2019-04-30T19:23:30.059Z,9.27
2019-04-30T19:25:57.339Z,6.87
2019-04-30T19:28:24.581Z,11.87
2019-04-30T19:30:57.578Z,8.97
2019-04-30T19:33:21.005Z,11.30
2019-04-30T19:35:50.493Z,7.77
2019-04-30T19:38:17.611Z,11.35
2019-04-30T19:40:44.827Z,16.30
2019-04-30T19:43:12.091Z,26.62
2019-04-30T19:45:39.352Z,33.40
2019-04-30T19:48:06.622Z,23.43
2019-04-30T19:50:34.351Z,12.63
2019-04-30T19:53:01.808Z,13.23
2019-04-30T19:55:29.095Z,10.37
2019-04-30T19:57:56.424Z,8.83
2019-04-30T20:00:23.668Z,9.00
2019-04-30T20:02:51.087Z,9.13
2019-04-30T20:05:19.409Z,8.30
2019-04-30T20:07:46.844Z,9.53
2019-04-30T20:10:14.141Z,7.97
2019-04-30T20:12:41.348Z,7.43
2019-04-30T20:15:17.305Z,10.97
2019-04-30T20:17:38.642Z,12.77
2019-04-30T20:20:08.808Z,7.20
2019-04-30T20:22:35.855Z,8.17
2019-04-30T20:25:03.731Z,9.00
2019-04-30T20:27:30.947Z,7.20
2019-04-30T20:29:59.239Z,7.97
2019-04-30T20:32:35.423Z,10.00
2019-04-30T20:34:55.843Z,11.63
2019-04-30T20:37:23.079Z,10.90
2019-04-30T20:40:01.324Z,12.97
2019-04-30T20:42:28.546Z,9.17
2019-04-30T20:44:55.814Z,9.00
2019-04-30T20:47:23.059Z,10.80
2019-04-30T20:49:50.307Z,13.83
2019-04-30T20:52:18.992Z,9.47
2019-04-30T20:54:48.731Z,11.10
2019-04-30T20:57:15.855Z,7.57
2019-04-30T20:59:43.191Z,9.23
2019-04-30T21:02:10.447Z,9.60
2019-04-30T21:04:37.683Z,7.80
2019-04-30T21:07:04.911Z,9.63
2019-04-30T21:09:32.147Z,10.20
2019-04-30T21:11:59.393Z,8.27
2019-04-30T21:14:26.619Z,10.50
2019-04-30T21:16:53.857Z,9.77
2019-04-30T21:19:21.136Z,9.87
2019-04-30T21:21:49.723Z,11.87
2019-04-30T21:24:17.230Z,11.77
2019-04-30T21:26:44.559Z,9.80
2019-04-30T21:29:15.627Z,10.60
2019-04-30T21:31:51.883Z,11.97
2019-04-30T21:34:47.496Z,11.37
2019-04-30T21:37:14.847Z,9.77
2019-04-30T21:39:42.066Z,12.77
2019-04-30T21:42:09.523Z,15.93
2019-04-30T21:44:36.855Z,12.50
2019-04-30T21:47:04.096Z,12.37
2019-04-30T21:49:32.854Z,10.27
2019-04-30T21:52:00.620Z,9.47
2019-04-30T21:54:28.349Z,8.93
2019-04-30T21:56:56.988Z,9.27
2019-04-30T21:59:24.830Z,8.93
2019-04-30T22:01:52.291Z,8.90
2019-04-30T22:04:19.527Z,11.63
2019-04-30T22:06:46.763Z,10.23
2019-04-30T22:09:14.612Z,10.47
2019-04-30T22:11:41.995Z,13.53
2019-04-30T22:14:09.255Z,9.40
2019-04-30T22:16:36.568Z,10.93
2019-04-30T22:19:03.858Z,11.60
2019-04-30T22:21:31.100Z,10.43
2019-04-30T22:23:58.339Z,11.97
2019-04-30T22:26:25.574Z,17.63
2019-04-30T22:28:52.831Z,12.80
2019-04-30T22:31:20.152Z,13.00
2019-04-30T22:33:49.033Z,11.37
2019-04-30T22:36:22.038Z,12.80
2019-04-30T22:39:12.095Z,13.77
2019-04-30T22:41:39.825Z,10.10
2019-04-30T22:44:07.183Z,11.53
2019-04-30T22:46:34.475Z,9.77
2019-04-30T22:49:01.704Z,11.37
2019-04-30T22:51:29.298Z,16.53
2019-04-30T22:53:56.623Z,10.27
2019-04-30T22:56:23.880Z,9.90
2019-04-30T22:58:51.103Z,12.67
2019-04-30T23:01:47.131Z,12.10
2019-04-30T23:04:21.319Z,10.60
2019-04-30T23:06:48.555Z,13.13
2019-04-30T23:09:15.788Z,11.33
2019-04-30T23:11:43.024Z,14.97
2019-04-30T23:14:10.239Z,11.57
2019-04-30T23:16:37.471Z,10.13
2019-04-30T23:19:04.731Z,13.33
2019-04-30T23:21:31.950Z,11.67
2019-04-30T23:23:59.220Z,14.07
2019-04-30T23:26:26.459Z,10.67
2019-04-30T23:28:53.795Z,11.90
2019-04-30T23:31:21.072Z,12.67
2019-04-30T23:33:48.313Z,10.60
2019-04-30T23:36:15.587Z,24.43
2019-04-30T23:38:42.823Z,14.87
2019-04-30T23:41:10.075Z,14.30
2019-04-30T23:43:37.311Z,11.90
2019-04-30T23:46:04.538Z,11.20
2019-04-30T23:48:31.799Z,11.40
2019-04-30T23:50:59.027Z,12.87
2019-04-30T23:53:26.278Z,10.80
2019-04-30T23:55:53.531Z,11.30
2019-04-30T23:58:20.759Z,16.43
